Huvudsida
METAR-TAF:

METAR-TAF

Flygplatser :

Kristiansunds flygplats. Kvernberget

Kristiansunds, Norge

latitud: 63-07N, longitud: 007-50E, höjd: 6 m

Aktuellt väderrapport

Denna rapport gjordes för 21 minuter sedan, klockan 20:20 UTC
Vind 5 kt från ost/nordost
Temperatur 4°C
Fuktighet 81%
Tryck 1036 hPa
Sikt 10 km eller mer
Brutna moln på en höjd av 2300 ft

METAR: ENKB 192020Z 07005KT 9999 BKN023 04/01 Q1036 RMK WIND 745FT 13006KT

Tid: 21:41 (20:41 UTC)

Väderprognos

Denna rapport gjordes för 3 timmar och 41 minuter sedan, klockan 17:00 UTC
Prognos gäller från 19 kl. 18 UTC till 19 kl. 22 UTC
Vind 5 kt från ost
Sikt 10 km eller mer
Få moln på en höjd av 500 ft
Brutna moln på en höjd av 2200 ft

TAF: ENKB 191700Z 1918/1922 09005KT 9999 FEW005 BKN022

Aktuella väderrapporter och prognoser från 4000 flygplatser (METAR- och TAF-rapporter).

De tillgängliga stationerna syns som gula och röda prickar på kartan.

För musen över prickarna för att se namnen på stationerna.

Klicka sedan för att få väderrapporter och prognoser.

För att ändra kartan: Klicka på de gröna knapparna med ett svart kors på för att zooma in; den gröna knappen med ett streck på för att zooma ut; eller på de gröna pilarna för angränsande kartor.


METAR-TAF: